Bessemer, Colorado
Current Conditions -  °F | °C
As of 7:53 PM on Friday 28 Nov 2014 (Local Time) from KPUB Reporting Station
Clear Clear  
Wind Chill: 50°   Ceiling: Unl
Heat Index: 50°   Visibility: 10mi
Dew Point: 17°   Wind: 5mph
Humidity: 27%   Direction: 170°S
Pressure: 29.83"   Gusts: NA
Location:  38.1378°N, 104.663°W
Report Text: KPUB 290253Z 17004KT 10SM CLR 10/M08 A2983 RMK AO2 SLP092 T01001083 50002
Loading
Personal Weather Stations






























Interactive Weather Map New forecast layout! Learn more

10-Day Weather Forecast

Advertisements
Track Severe Weather on mobile